sensor_id;sensor_type;location;lat;lon;timestamp;P1;durP1;ratioP1;P2;durP2;ratioP2
40745;SDS011;26454;51.164;4.488;2023-09-07T00:02:08;8.40;;;7.32;;
40745;SDS011;26454;51.164;4.488;2023-09-07T00:04:39;8.00;;;7.13;;
40745;SDS011;26454;51.164;4.488;2023-09-07T00:07:05;8.07;;;7.10;;
40745;SDS011;26454;51.164;4.488;2023-09-07T00:09:34;8.48;;;7.25;;
40745;SDS011;26454;51.164;4.488;2023-09-07T00:12:07;9.95;;;6.82;;
40745;SDS011;26454;51.164;4.488;2023-09-07T00:14:35;9.95;;;6.80;;
40745;SDS011;26454;51.164;4.488;2023-09-07T00:17:01;8.52;;;7.50;;
40745;SDS011;26454;51.164;4.488;2023-09-07T00:19:33;11.38;;;6.88;;
40745;SDS011;26454;51.164;4.488;2023-09-07T00:22:02;9.43;;;8.40;;
40745;SDS011;26454;51.164;4.488;2023-09-07T00:24:31;9.23;;;7.25;;
40745;SDS011;26454;51.164;4.488;2023-09-07T00:26:57;7.35;;;6.65;;
40745;SDS011;26454;51.164;4.488;2023-09-07T00:29:23;7.40;;;6.70;;
40745;SDS011;26454;51.164;4.488;2023-09-07T00:31:49;7.78;;;6.97;;
40745;SDS011;26454;51.164;4.488;2023-09-07T00:34:15;9.75;;;7.43;;
40745;SDS011;26454;51.164;4.488;2023-09-07T00:36:41;9.38;;;7.00;;
40745;SDS011;26454;51.164;4.488;2023-09-07T00:39:07;9.95;;;7.63;;
40745;SDS011;26454;51.164;4.488;2023-09-07T00:41:33;10.10;;;7.53;;
40745;SDS011;26454;51.164;4.488;2023-09-07T00:44:02;9.98;;;6.95;;
40745;SDS011;26454;51.164;4.488;2023-09-07T00:46:28;11.07;;;7.80;;
40745;SDS011;26454;51.164;4.488;2023-09-07T00:48:54;8.70;;;7.03;;
40745;SDS011;26454;51.164;4.488;2023-09-07T00:51:24;9.38;;;7.22;;
40745;SDS011;26454;51.164;4.488;2023-09-07T00:53:50;12.32;;;7.50;;
40745;SDS011;26454;51.164;4.488;2023-09-07T00:56:21;9.32;;;7.47;;
40745;SDS011;26454;51.164;4.488;2023-09-07T00:58:50;8.48;;;7.35;;
40745;SDS011;26454;51.164;4.488;2023-09-07T01:01:17;9.38;;;6.88;;
40745;SDS011;26454;51.164;4.488;2023-09-07T01:03:43;8.73;;;6.78;;
40745;SDS011;26454;51.164;4.488;2023-09-07T01:06:13;8.35;;;7.30;;
40745;SDS011;26454;51.164;4.488;2023-09-07T01:08:42;9.48;;;7.80;;
40745;SDS011;26454;51.164;4.488;2023-09-07T01:11:17;9.40;;;7.57;;
40745;SDS011;26454;51.164;4.488;2023-09-07T01:13:45;9.40;;;7.28;;
40745;SDS011;26454;51.164;4.488;2023-09-07T01:16:12;10.02;;;8.43;;
40745;SDS011;26454;51.164;4.488;2023-09-07T01:18:38;9.85;;;7.47;;
40745;SDS011;26454;51.164;4.488;2023-09-07T01:21:06;8.52;;;7.18;;
40745;SDS011;26454;51.164;4.488;2023-09-07T01:23:34;9.07;;;6.70;;
40745;SDS011;26454;51.164;4.488;2023-09-07T01:26:01;10.68;;;8.13;;
40745;SDS011;26454;51.164;4.488;2023-09-07T01:28:29;8.77;;;7.28;;
40745;SDS011;26454;51.164;4.488;2023-09-07T01:30:56;9.57;;;8.13;;
40745;SDS011;26454;51.164;4.488;2023-09-07T01:33:23;10.20;;;7.28;;
40745;SDS011;26454;51.164;4.488;2023-09-07T01:35:58;8.18;;;7.00;;
40745;SDS011;26454;51.164;4.488;2023-09-07T01:38:24;7.93;;;7.13;;
40745;SDS011;26454;51.164;4.488;2023-09-07T01:40:50;9.75;;;7.78;;
40745;SDS011;26454;51.164;4.488;2023-09-07T01:43:16;8.02;;;7.22;;
40745;SDS011;26454;51.164;4.488;2023-09-07T01:45:42;7.97;;;7.18;;
40745;SDS011;26454;51.164;4.488;2023-09-07T01:48:11;8.82;;;7.75;;
40745;SDS011;26454;51.164;4.488;2023-09-07T01:50:39;8.43;;;6.90;;
40745;SDS011;26454;51.164;4.488;2023-09-07T01:53:05;9.00;;;7.95;;
40745;SDS011;26454;51.164;4.488;2023-09-07T01:55:31;9.02;;;7.93;;
40745;SDS011;26454;51.164;4.488;2023-09-07T01:57:59;8.57;;;7.65;;
40745;SDS011;26454;51.164;4.488;2023-09-07T02:00:25;9.02;;;7.82;;
40745;SDS011;26454;51.164;4.488;2023-09-07T02:02:58;9.93;;;8.90;;
40745;SDS011;26454;51.164;4.488;2023-09-07T02:05:27;9.32;;;8.07;;
40745;SDS011;26454;51.164;4.488;2023-09-07T02:07:54;9.45;;;8.32;;
40745;SDS011;26454;51.164;4.488;2023-09-07T02:10:21;10.80;;;8.73;;
40745;SDS011;26454;51.164;4.488;2023-09-07T02:12:47;9.15;;;8.13;;
40745;SDS011;26454;51.164;4.488;2023-09-07T02:15:14;9.43;;;8.45;;
40745;SDS011;26454;51.164;4.488;2023-09-07T02:17:40;9.05;;;7.82;;
40745;SDS011;26454;51.164;4.488;2023-09-07T02:20:10;9.77;;;8.75;;
40745;SDS011;26454;51.164;4.488;2023-09-07T02:22:37;13.90;;;9.45;;
40745;SDS011;26454;51.164;4.488;2023-09-07T02:25:03;9.73;;;8.18;;
40745;SDS011;26454;51.164;4.488;2023-09-07T02:27:30;11.00;;;9.80;;
40745;SDS011;26454;51.164;4.488;2023-09-07T02:29:56;9.35;;;8.40;;
40745;SDS011;26454;51.164;4.488;2023-09-07T02:32:22;11.18;;;9.45;;
40745;SDS011;26454;51.164;4.488;2023-09-07T02:34:48;10.30;;;9.20;;
40745;SDS011;26454;51.164;4.488;2023-09-07T02:37:14;11.63;;;9.30;;
40745;SDS011;26454;51.164;4.488;2023-09-07T02:39:41;9.93;;;8.98;;
40745;SDS011;26454;51.164;4.488;2023-09-07T02:42:07;11.32;;;9.98;;
40745;SDS011;26454;51.164;4.488;2023-09-07T02:44:34;11.57;;;10.38;;
40745;SDS011;26454;51.164;4.488;2023-09-07T02:47:00;10.60;;;9.48;;
40745;SDS011;26454;51.164;4.488;2023-09-07T02:49:27;10.23;;;9.23;;
40745;SDS011;26454;51.164;4.488;2023-09-07T02:51:53;11.38;;;9.15;;
40745;SDS011;26454;51.164;4.488;2023-09-07T02:54:19;12.18;;;9.65;;
40745;SDS011;26454;51.164;4.488;2023-09-07T02:56:45;10.65;;;9.55;;
40745;SDS011;26454;51.164;4.488;2023-09-07T02:59:11;11.52;;;9.77;;
40745;SDS011;26454;51.164;4.488;2023-09-07T03:01:38;13.18;;;10.70;;
40745;SDS011;26454;51.164;4.488;2023-09-07T03:04:05;9.95;;;8.95;;
40745;SDS011;26454;51.164;4.488;2023-09-07T03:06:32;11.18;;;9.55;;
40745;SDS011;26454;51.164;4.488;2023-09-07T03:08:59;11.10;;;9.77;;
40745;SDS011;26454;51.164;4.488;2023-09-07T03:11:25;10.43;;;9.43;;
40745;SDS011;26454;51.164;4.488;2023-09-07T03:13:51;10.60;;;9.48;;
40745;SDS011;26454;51.164;4.488;2023-09-07T03:16:17;12.38;;;10.25;;
40745;SDS011;26454;51.164;4.488;2023-09-07T03:18:43;12.35;;;9.32;;
40745;SDS011;26454;51.164;4.488;2023-09-07T03:21:10;10.35;;;9.35;;
40745;SDS011;26454;51.164;4.488;2023-09-07T03:23:36;10.77;;;9.48;;
40745;SDS011;26454;51.164;4.488;2023-09-07T03:26:04;12.52;;;10.20;;
40745;SDS011;26454;51.164;4.488;2023-09-07T03:28:30;12.15;;;10.85;;
40745;SDS011;26454;51.164;4.488;2023-09-07T03:30:56;12.63;;;10.48;;
40745;SDS011;26454;51.164;4.488;2023-09-07T03:33:22;12.18;;;10.80;;
40745;SDS011;26454;51.164;4.488;2023-09-07T03:35:48;11.82;;;10.57;;
40745;SDS011;26454;51.164;4.488;2023-09-07T03:38:17;12.50;;;10.52;;
40745;SDS011;26454;51.164;4.488;2023-09-07T03:40:43;13.40;;;11.15;;
40745;SDS011;26454;51.164;4.488;2023-09-07T03:43:09;16.45;;;11.35;;
40745;SDS011;26454;51.164;4.488;2023-09-07T03:45:35;15.30;;;11.00;;
40745;SDS011;26454;51.164;4.488;2023-09-07T03:48:02;14.23;;;10.70;;
40745;SDS011;26454;51.164;4.488;2023-09-07T03:50:28;17.27;;;11.90;;
40745;SDS011;26454;51.164;4.488;2023-09-07T03:52:54;15.93;;;12.48;;
40745;SDS011;26454;51.164;4.488;2023-09-07T03:55:20;15.77;;;11.98;;
40745;SDS011;26454;51.164;4.488;2023-09-07T03:57:50;15.35;;;11.52;;
40745;SDS011;26454;51.164;4.488;2023-09-07T04:00:16;16.33;;;12.77;;
40745;SDS011;26454;51.164;4.488;2023-09-07T04:02:43;15.40;;;11.55;;
40745;SDS011;26454;51.164;4.488;2023-09-07T04:05:10;13.73;;;12.10;;
40745;SDS011;26454;51.164;4.488;2023-09-07T04:07:37;13.43;;;11.38;;
40745;SDS011;26454;51.164;4.488;2023-09-07T04:10:03;15.13;;;12.07;;
40745;SDS011;26454;51.164;4.488;2023-09-07T04:12:30;14.73;;;11.57;;
40745;SDS011;26454;51.164;4.488;2023-09-07T04:14:56;14.73;;;11.98;;
40745;SDS011;26454;51.164;4.488;2023-09-07T04:17:22;13.00;;;11.70;;
40745;SDS011;26454;51.164;4.488;2023-09-07T04:19:48;14.43;;;12.75;;
40745;SDS011;26454;51.164;4.488;2023-09-07T04:22:14;16.40;;;12.85;;
40745;SDS011;26454;51.164;4.488;2023-09-07T04:24:42;14.73;;;11.77;;
40745;SDS011;26454;51.164;4.488;2023-09-07T04:27:08;12.82;;;11.50;;
40745;SDS011;26454;51.164;4.488;2023-09-07T04:29:34;14.88;;;12.73;;
40745;SDS011;26454;51.164;4.488;2023-09-07T04:32:00;14.13;;;12.73;;
40745;SDS011;26454;51.164;4.488;2023-09-07T04:34:27;19.63;;;14.38;;
40745;SDS011;26454;51.164;4.488;2023-09-07T04:36:53;18.13;;;14.48;;
40745;SDS011;26454;51.164;4.488;2023-09-07T04:39:22;15.88;;;14.20;;
40745;SDS011;26454;51.164;4.488;2023-09-07T04:41:48;19.35;;;15.13;;
40745;SDS011;26454;51.164;4.488;2023-09-07T04:44:17;18.40;;;16.10;;
40745;SDS011;26454;51.164;4.488;2023-09-07T04:46:44;18.38;;;15.32;;
40745;SDS011;26454;51.164;4.488;2023-09-07T04:49:10;20.35;;;15.95;;
40745;SDS011;26454;51.164;4.488;2023-09-07T04:51:36;20.27;;;16.30;;
40745;SDS011;26454;51.164;4.488;2023-09-07T04:54:02;19.95;;;15.98;;
40745;SDS011;26454;51.164;4.488;2023-09-07T04:56:28;18.35;;;15.20;;
40745;SDS011;26454;51.164;4.488;2023-09-07T04:58:54;20.48;;;15.95;;
40745;SDS011;26454;51.164;4.488;2023-09-07T05:01:20;20.30;;;16.75;;
40745;SDS011;26454;51.164;4.488;2023-09-07T05:03:47;19.45;;;15.88;;
40745;SDS011;26454;51.164;4.488;2023-09-07T05:06:16;18.30;;;15.18;;
40745;SDS011;26454;51.164;4.488;2023-09-07T05:08:43;18.13;;;16.00;;
40745;SDS011;26454;51.164;4.488;2023-09-07T05:11:09;21.48;;;15.30;;
40745;SDS011;26454;51.164;4.488;2023-09-07T05:13:35;19.65;;;14.93;;
40745;SDS011;26454;51.164;4.488;2023-09-07T05:16:01;16.15;;;14.40;;
40745;SDS011;26454;51.164;4.488;2023-09-07T05:18:29;15.90;;;14.30;;
40745;SDS011;26454;51.164;4.488;2023-09-07T05:21:00;15.23;;;13.63;;
40745;SDS011;26454;51.164;4.488;2023-09-07T05:23:26;17.48;;;14.18;;
40745;SDS011;26454;51.164;4.488;2023-09-07T05:25:52;19.00;;;14.13;;
40745;SDS011;26454;51.164;4.488;2023-09-07T05:28:20;17.92;;;15.05;;
40745;SDS011;26454;51.164;4.488;2023-09-07T05:30:47;16.88;;;15.07;;
40745;SDS011;26454;51.164;4.488;2023-09-07T05:33:14;15.73;;;14.13;;
40745;SDS011;26454;51.164;4.488;2023-09-07T05:35:42;16.52;;;14.23;;
40745;SDS011;26454;51.164;4.488;2023-09-07T05:38:08;17.25;;;14.82;;
40745;SDS011;26454;51.164;4.488;2023-09-07T05:40:35;18.95;;;14.82;;
40745;SDS011;26454;51.164;4.488;2023-09-07T05:43:02;18.10;;;15.00;;
40745;SDS011;26454;51.164;4.488;2023-09-07T05:45:29;20.35;;;15.02;;
40745;SDS011;26454;51.164;4.488;2023-09-07T05:47:58;17.80;;;14.75;;
40745;SDS011;26454;51.164;4.488;2023-09-07T05:50:24;20.48;;;15.25;;
40745;SDS011;26454;51.164;4.488;2023-09-07T05:52:50;27.48;;;16.80;;
40745;SDS011;26454;51.164;4.488;2023-09-07T05:55:17;19.55;;;15.13;;
40745;SDS011;26454;51.164;4.488;2023-09-07T05:57:45;16.08;;;14.40;;
40745;SDS011;26454;51.164;4.488;2023-09-07T06:00:12;17.50;;;14.40;;
40745;SDS011;26454;51.164;4.488;2023-09-07T06:02:39;18.52;;;14.75;;
40745;SDS011;26454;51.164;4.488;2023-09-07T06:05:06;19.45;;;13.55;;
40745;SDS011;26454;51.164;4.488;2023-09-07T06:07:32;17.30;;;14.80;;
40745;SDS011;26454;51.164;4.488;2023-09-07T06:09:58;17.05;;;13.20;;
40745;SDS011;26454;51.164;4.488;2023-09-07T06:12:25;16.65;;;13.82;;
40745;SDS011;26454;51.164;4.488;2023-09-07T06:14:51;18.45;;;13.80;;
40745;SDS011;26454;51.164;4.488;2023-09-07T06:17:23;22.83;;;15.35;;
40745;SDS011;26454;51.164;4.488;2023-09-07T06:19:49;20.75;;;15.07;;
40745;SDS011;26454;51.164;4.488;2023-09-07T06:22:16;17.92;;;14.85;;
40745;SDS011;26454;51.164;4.488;2023-09-07T06:24:42;22.23;;;14.82;;
40745;SDS011;26454;51.164;4.488;2023-09-07T06:27:11;15.20;;;13.32;;
40745;SDS011;26454;51.164;4.488;2023-09-07T06:29:37;19.17;;;14.57;;
40745;SDS011;26454;51.164;4.488;2023-09-07T06:32:04;14.20;;;12.38;;
40745;SDS011;26454;51.164;4.488;2023-09-07T06:34:31;20.42;;;14.60;;
40745;SDS011;26454;51.164;4.488;2023-09-07T06:36:58;18.08;;;13.45;;
40745;SDS011;26454;51.164;4.488;2023-09-07T06:39:24;19.20;;;13.90;;
40745;SDS011;26454;51.164;4.488;2023-09-07T06:41:50;20.23;;;14.43;;
40745;SDS011;26454;51.164;4.488;2023-09-07T06:44:16;17.30;;;14.13;;
40745;SDS011;26454;51.164;4.488;2023-09-07T06:46:43;21.95;;;13.52;;
40745;SDS011;26454;51.164;4.488;2023-09-07T06:49:09;19.33;;;13.27;;
40745;SDS011;26454;51.164;4.488;2023-09-07T06:51:35;17.58;;;14.40;;
40745;SDS011;26454;51.164;4.488;2023-09-07T06:54:02;13.70;;;12.30;;
40745;SDS011;26454;51.164;4.488;2023-09-07T06:56:31;16.80;;;14.18;;
40745;SDS011;26454;51.164;4.488;2023-09-07T06:59:15;15.57;;;13.60;;
40745;SDS011;26454;51.164;4.488;2023-09-07T07:01:42;13.95;;;12.00;;
40745;SDS011;26454;51.164;4.488;2023-09-07T07:04:13;14.23;;;12.07;;
40745;SDS011;26454;51.164;4.488;2023-09-07T07:06:44;14.27;;;12.40;;
40745;SDS011;26454;51.164;4.488;2023-09-07T07:09:17;16.98;;;12.63;;
40745;SDS011;26454;51.164;4.488;2023-09-07T07:11:46;13.98;;;11.77;;
40745;SDS011;26454;51.164;4.488;2023-09-07T07:14:17;17.70;;;11.75;;
40745;SDS011;26454;51.164;4.488;2023-09-07T07:16:50;17.98;;;11.93;;
40745;SDS011;26454;51.164;4.488;2023-09-07T07:19:19;17.08;;;11.95;;
40745;SDS011;26454;51.164;4.488;2023-09-07T07:21:58;17.50;;;11.68;;
40745;SDS011;26454;51.164;4.488;2023-09-07T07:24:33;18.10;;;12.38;;
40745;SDS011;26454;51.164;4.488;2023-09-07T07:27:02;13.77;;;10.90;;
40745;SDS011;26454;51.164;4.488;2023-09-07T07:29:37;15.17;;;10.80;;
40745;SDS011;26454;51.164;4.488;2023-09-07T07:32:06;18.00;;;12.40;;
40745;SDS011;26454;51.164;4.488;2023-09-07T07:34:32;15.65;;;11.32;;
40745;SDS011;26454;51.164;4.488;2023-09-07T07:36:58;12.90;;;10.40;;
40745;SDS011;26454;51.164;4.488;2023-09-07T07:39:34;15.57;;;9.60;;
40745;SDS011;26454;51.164;4.488;2023-09-07T07:42:05;16.05;;;9.88;;
40745;SDS011;26454;51.164;4.488;2023-09-07T07:44:35;12.38;;;8.93;;
40745;SDS011;26454;51.164;4.488;2023-09-07T07:47:02;10.82;;;9.73;;
40745;SDS011;26454;51.164;4.488;2023-09-07T07:49:34;13.10;;;8.88;;
40745;SDS011;26454;51.164;4.488;2023-09-07T07:52:01;11.07;;;9.80;;
40745;SDS011;26454;51.164;4.488;2023-09-07T07:54:27;13.25;;;9.73;;
40745;SDS011;26454;51.164;4.488;2023-09-07T07:56:57;9.10;;;8.20;;
40745;SDS011;26454;51.164;4.488;2023-09-07T07:59:25;14.27;;;9.05;;
40745;SDS011;26454;51.164;4.488;2023-09-07T08:01:51;17.67;;;9.23;;
40745;SDS011;26454;51.164;4.488;2023-09-07T08:04:19;12.90;;;9.07;;
40745;SDS011;26454;51.164;4.488;2023-09-07T08:06:48;11.20;;;8.73;;
40745;SDS011;26454;51.164;4.488;2023-09-07T08:09:16;14.70;;;9.60;;
40745;SDS011;26454;51.164;4.488;2023-09-07T08:11:45;11.52;;;8.52;;
40745;SDS011;26454;51.164;4.488;2023-09-07T08:14:19;12.02;;;8.65;;
40745;SDS011;26454;51.164;4.488;2023-09-07T08:16:49;14.80;;;8.90;;
40745;SDS011;26454;51.164;4.488;2023-09-07T08:19:16;11.52;;;8.20;;
40745;SDS011;26454;51.164;4.488;2023-09-07T08:21:43;11.65;;;9.20;;
40745;SDS011;26454;51.164;4.488;2023-09-07T08:24:11;10.95;;;9.82;;
40745;SDS011;26454;51.164;4.488;2023-09-07T08:26:37;11.65;;;7.35;;
40745;SDS011;26454;51.164;4.488;2023-09-07T08:29:04;10.27;;;7.75;;
40745;SDS011;26454;51.164;4.488;2023-09-07T08:31:31;12.73;;;8.32;;
40745;SDS011;26454;51.164;4.488;2023-09-07T08:34:00;10.43;;;8.50;;
40745;SDS011;26454;51.164;4.488;2023-09-07T08:38:57;11.88;;;7.20;;
40745;SDS011;26454;51.164;4.488;2023-09-07T08:41:32;13.32;;;8.35;;
40745;SDS011;26454;51.164;4.488;2023-09-07T08:44:06;11.50;;;6.90;;
40745;SDS011;26454;51.164;4.488;2023-09-07T08:46:35;9.02;;;6.65;;
40745;SDS011;26454;51.164;4.488;2023-09-07T08:49:02;6.90;;;5.95;;
40745;SDS011;26454;51.164;4.488;2023-09-07T08:51:30;8.82;;;6.32;;
40745;SDS011;26454;51.164;4.488;2023-09-07T08:53:57;7.32;;;6.07;;
40745;SDS011;26454;51.164;4.488;2023-09-07T08:56:24;8.02;;;5.15;;
40745;SDS011;26454;51.164;4.488;2023-09-07T08:58:50;9.18;;;5.28;;
40745;SDS011;26454;51.164;4.488;2023-09-07T09:01:16;7.75;;;5.05;;
40745;SDS011;26454;51.164;4.488;2023-09-07T09:03:46;8.98;;;5.10;;
40745;SDS011;26454;51.164;4.488;2023-09-07T09:06:17;12.75;;;8.05;;
40745;SDS011;26454;51.164;4.488;2023-09-07T09:08:44;7.97;;;4.35;;
40745;SDS011;26454;51.164;4.488;2023-09-07T09:11:11;10.18;;;4.15;;
40745;SDS011;26454;51.164;4.488;2023-09-07T09:13:39;6.50;;;4.10;;
40745;SDS011;26454;51.164;4.488;2023-09-07T09:16:05;7.53;;;4.45;;
40745;SDS011;26454;51.164;4.488;2023-09-07T09:18:31;9.60;;;5.05;;
40745;SDS011;26454;51.164;4.488;2023-09-07T09:20:57;4.53;;;4.13;;
40745;SDS011;26454;51.164;4.488;2023-09-07T09:23:29;8.98;;;5.03;;
40745;SDS011;26454;51.164;4.488;2023-09-07T09:26:01;7.35;;;5.18;;
40745;SDS011;26454;51.164;4.488;2023-09-07T09:30:56;6.72;;;4.38;;
40745;SDS011;26454;51.164;4.488;2023-09-07T09:33:23;7.20;;;4.55;;
40745;SDS011;26454;51.164;4.488;2023-09-07T09:35:49;5.22;;;3.22;;
40745;SDS011;26454;51.164;4.488;2023-09-07T09:38:17;4.47;;;4.05;;
40745;SDS011;26454;51.164;4.488;2023-09-07T09:40:43;7.05;;;3.90;;
40745;SDS011;26454;51.164;4.488;2023-09-07T09:43:12;4.25;;;3.60;;
40745;SDS011;26454;51.164;4.488;2023-09-07T09:45:38;4.78;;;3.88;;
40745;SDS011;26454;51.164;4.488;2023-09-07T09:48:06;3.88;;;3.25;;
40745;SDS011;26454;51.164;4.488;2023-09-07T09:50:32;4.15;;;3.47;;
40745;SDS011;26454;51.164;4.488;2023-09-07T09:53:06;4.53;;;3.50;;
40745;SDS011;26454;51.164;4.488;2023-09-07T09:57:58;7.35;;;3.60;;
40745;SDS011;26454;51.164;4.488;2023-09-07T10:00:25;6.30;;;3.47;;
40745;SDS011;26454;51.164;4.488;2023-09-07T10:02:54;4.05;;;3.50;;
40745;SDS011;26454;51.164;4.488;2023-09-07T10:05:22;5.05;;;3.63;;
40745;SDS011;26454;51.164;4.488;2023-09-07T10:08:00;4.65;;;3.20;;
40745;SDS011;26454;51.164;4.488;2023-09-07T10:10:31;4.07;;;3.20;;
40745;SDS011;26454;51.164;4.488;2023-09-07T10:12:58;4.70;;;3.42;;
40745;SDS011;26454;51.164;4.488;2023-09-07T10:15:25;5.15;;;3.25;;
40745;SDS011;26454;51.164;4.488;2023-09-07T10:18:04;9.48;;;3.33;;
40745;SDS011;26454;51.164;4.488;2023-09-07T10:20:46;4.32;;;3.30;;
40745;SDS011;26454;51.164;4.488;2023-09-07T10:23:13;7.10;;;4.07;;
40745;SDS011;26454;51.164;4.488;2023-09-07T10:25:40;5.75;;;2.65;;
40745;SDS011;26454;51.164;4.488;2023-09-07T10:28:23;5.88;;;3.00;;
40745;SDS011;26454;51.164;4.488;2023-09-07T10:30:57;5.55;;;3.05;;
40745;SDS011;26454;51.164;4.488;2023-09-07T10:33:24;4.78;;;3.63;;
40745;SDS011;26454;51.164;4.488;2023-09-07T10:35:51;5.47;;;2.88;;
40745;SDS011;26454;51.164;4.488;2023-09-07T10:38:17;6.95;;;3.63;;
40745;SDS011;26454;51.164;4.488;2023-09-07T10:40:44;7.97;;;3.35;;
40745;SDS011;26454;51.164;4.488;2023-09-07T10:43:11;3.35;;;2.08;;
40745;SDS011;26454;51.164;4.488;2023-09-07T10:45:37;5.97;;;3.53;;
40745;SDS011;26454;51.164;4.488;2023-09-07T10:48:03;3.83;;;3.00;;
40745;SDS011;26454;51.164;4.488;2023-09-07T10:50:29;6.20;;;3.20;;
40745;SDS011;26454;51.164;4.488;2023-09-07T10:52:56;7.80;;;3.38;;
40745;SDS011;26454;51.164;4.488;2023-09-07T10:55:22;13.38;;;3.42;;
40745;SDS011;26454;51.164;4.488;2023-09-07T10:57:48;3.47;;;2.90;;
40745;SDS011;26454;51.164;4.488;2023-09-07T11:00:15;8.73;;;3.38;;
40745;SDS011;26454;51.164;4.488;2023-09-07T11:02:41;7.13;;;3.60;;
40745;SDS011;26454;51.164;4.488;2023-09-07T11:05:11;9.10;;;4.28;;
40745;SDS011;26454;51.164;4.488;2023-09-07T11:07:37;7.18;;;2.95;;
40745;SDS011;26454;51.164;4.488;2023-09-07T11:10:06;9.05;;;3.00;;
40745;SDS011;26454;51.164;4.488;2023-09-07T11:12:36;3.95;;;3.17;;
40745;SDS011;26454;51.164;4.488;2023-09-07T11:15:03;5.45;;;2.78;;
40745;SDS011;26454;51.164;4.488;2023-09-07T11:17:30;5.18;;;3.25;;
40745;SDS011;26454;51.164;4.488;2023-09-07T11:19:56;3.45;;;2.78;;
40745;SDS011;26454;51.164;4.488;2023-09-07T11:22:22;10.52;;;2.88;;
40745;SDS011;26454;51.164;4.488;2023-09-07T11:24:48;3.55;;;2.90;;
40745;SDS011;26454;51.164;4.488;2023-09-07T11:27:17;4.18;;;3.17;;
40745;SDS011;26454;51.164;4.488;2023-09-07T11:29:50;3.17;;;2.78;;
40745;SDS011;26454;51.164;4.488;2023-09-07T11:32:16;3.92;;;3.33;;
40745;SDS011;26454;51.164;4.488;2023-09-07T11:34:48;6.60;;;3.13;;
40745;SDS011;26454;51.164;4.488;2023-09-07T11:37:15;3.07;;;2.57;;
40745;SDS011;26454;51.164;4.488;2023-09-07T11:39:42;6.40;;;3.05;;
40745;SDS011;26454;51.164;4.488;2023-09-07T11:42:08;3.83;;;2.92;;
40745;SDS011;26454;51.164;4.488;2023-09-07T11:44:34;3.40;;;3.00;;
40745;SDS011;26454;51.164;4.488;2023-09-07T11:47:01;4.30;;;3.30;;
40745;SDS011;26454;51.164;4.488;2023-09-07T11:49:28;3.80;;;2.83;;
40745;SDS011;26454;51.164;4.488;2023-09-07T11:51:57;6.78;;;3.20;;
40745;SDS011;26454;51.164;4.488;2023-09-07T11:56:52;8.75;;;3.35;;
40745;SDS011;26454;51.164;4.488;2023-09-07T11:59:18;3.90;;;3.08;;
40745;SDS011;26454;51.164;4.488;2023-09-07T12:01:47;7.75;;;2.85;;
40745;SDS011;26454;51.164;4.488;2023-09-07T12:04:16;4.90;;;3.13;;
40745;SDS011;26454;51.164;4.488;2023-09-07T12:06:43;4.53;;;2.38;;
40745;SDS011;26454;51.164;4.488;2023-09-07T12:09:09;6.53;;;2.70;;
40745;SDS011;26454;51.164;4.488;2023-09-07T12:11:35;3.83;;;2.70;;
40745;SDS011;26454;51.164;4.488;2023-09-07T12:14:04;3.50;;;2.85;;
40745;SDS011;26454;51.164;4.488;2023-09-07T12:16:30;3.73;;;3.17;;
40745;SDS011;26454;51.164;4.488;2023-09-07T12:19:01;4.68;;;3.00;;
40745;SDS011;26454;51.164;4.488;2023-09-07T12:21:27;4.82;;;2.38;;
40745;SDS011;26454;51.164;4.488;2023-09-07T12:23:53;3.80;;;2.90;;
40745;SDS011;26454;51.164;4.488;2023-09-07T12:26:19;3.47;;;2.53;;
40745;SDS011;26454;51.164;4.488;2023-09-07T12:28:46;4.72;;;2.80;;
40745;SDS011;26454;51.164;4.488;2023-09-07T12:31:13;2.60;;;2.33;;
40745;SDS011;26454;51.164;4.488;2023-09-07T12:33:42;5.70;;;2.65;;
40745;SDS011;26454;51.164;4.488;2023-09-07T12:36:08;3.13;;;2.70;;
40745;SDS011;26454;51.164;4.488;2023-09-07T12:38:35;7.43;;;2.50;;
40745;SDS011;26454;51.164;4.488;2023-09-07T12:41:01;3.95;;;2.42;;
40745;SDS011;26454;51.164;4.488;2023-09-07T12:43:27;2.60;;;2.38;;
40745;SDS011;26454;51.164;4.488;2023-09-07T12:45:54;3.67;;;2.78;;
40745;SDS011;26454;51.164;4.488;2023-09-07T12:48:20;4.75;;;2.60;;
40745;SDS011;26454;51.164;4.488;2023-09-07T12:50:47;5.68;;;2.75;;
40745;SDS011;26454;51.164;4.488;2023-09-07T12:53:13;6.15;;;2.22;;
40745;SDS011;26454;51.164;4.488;2023-09-07T12:55:39;3.13;;;2.60;;
40745;SDS011;26454;51.164;4.488;2023-09-07T12:58:06;9.63;;;2.58;;
40745;SDS011;26454;51.164;4.488;2023-09-07T13:00:32;3.53;;;2.40;;
40745;SDS011;26454;51.164;4.488;2023-09-07T13:02:58;3.72;;;2.30;;
40745;SDS011;26454;51.164;4.488;2023-09-07T13:05:24;4.45;;;2.28;;
40745;SDS011;26454;51.164;4.488;2023-09-07T13:07:50;3.10;;;2.00;;
40745;SDS011;26454;51.164;4.488;2023-09-07T13:10:17;3.90;;;2.20;;
40745;SDS011;26454;51.164;4.488;2023-09-07T13:12:44;8.10;;;2.17;;
40745;SDS011;26454;51.164;4.488;2023-09-07T13:15:10;3.75;;;2.42;;
40745;SDS011;26454;51.164;4.488;2023-09-07T13:17:37;4.00;;;2.35;;
40745;SDS011;26454;51.164;4.488;2023-09-07T13:20:06;3.40;;;2.30;;
40745;SDS011;26454;51.164;4.488;2023-09-07T13:22:32;4.57;;;2.58;;
40745;SDS011;26454;51.164;4.488;2023-09-07T13:24:58;2.80;;;2.03;;
40745;SDS011;26454;51.164;4.488;2023-09-07T13:27:26;2.92;;;2.20;;
40745;SDS011;26454;51.164;4.488;2023-09-07T13:29:52;4.05;;;2.40;;
40745;SDS011;26454;51.164;4.488;2023-09-07T13:32:18;5.43;;;2.35;;
40745;SDS011;26454;51.164;4.488;2023-09-07T13:34:44;6.18;;;2.22;;
40745;SDS011;26454;51.164;4.488;2023-09-07T13:37:10;6.10;;;2.72;;
40745;SDS011;26454;51.164;4.488;2023-09-07T13:39:37;2.67;;;2.00;;
40745;SDS011;26454;51.164;4.488;2023-09-07T13:42:04;2.65;;;2.30;;
40745;SDS011;26454;51.164;4.488;2023-09-07T13:44:37;2.47;;;2.22;;
40745;SDS011;26454;51.164;4.488;2023-09-07T13:47:07;2.40;;;2.20;;
40745;SDS011;26454;51.164;4.488;2023-09-07T13:49:34;4.15;;;2.53;;
40745;SDS011;26454;51.164;4.488;2023-09-07T13:52:00;3.25;;;2.25;;
40745;SDS011;26454;51.164;4.488;2023-09-07T13:54:28;2.97;;;2.43;;
40745;SDS011;26454;51.164;4.488;2023-09-07T13:56:54;2.47;;;2.22;;
40745;SDS011;26454;51.164;4.488;2023-09-07T13:59:20;2.85;;;2.20;;
40745;SDS011;26454;51.164;4.488;2023-09-07T14:01:56;3.50;;;2.28;;
40745;SDS011;26454;51.164;4.488;2023-09-07T14:04:23;6.72;;;2.28;;
40745;SDS011;26454;51.164;4.488;2023-09-07T14:06:53;2.67;;;1.90;;
40745;SDS011;26454;51.164;4.488;2023-09-07T14:09:19;5.35;;;2.53;;
40745;SDS011;26454;51.164;4.488;2023-09-07T14:14:14;6.38;;;2.30;;
40745;SDS011;26454;51.164;4.488;2023-09-07T14:16:41;4.18;;;2.10;;
40745;SDS011;26454;51.164;4.488;2023-09-07T14:19:07;3.63;;;2.33;;
40745;SDS011;26454;51.164;4.488;2023-09-07T14:21:33;5.07;;;2.60;;
40745;SDS011;26454;51.164;4.488;2023-09-07T14:24:00;6.35;;;2.55;;
40745;SDS011;26454;51.164;4.488;2023-09-07T14:26:26;5.78;;;2.60;;
40745;SDS011;26454;51.164;4.488;2023-09-07T14:28:52;4.32;;;2.13;;
40745;SDS011;26454;51.164;4.488;2023-09-07T14:31:19;3.97;;;2.33;;
40745;SDS011;26454;51.164;4.488;2023-09-07T14:33:45;2.17;;;1.90;;
40745;SDS011;26454;51.164;4.488;2023-09-07T14:36:11;5.78;;;2.53;;
40745;SDS011;26454;51.164;4.488;2023-09-07T14:38:37;4.20;;;2.40;;
40745;SDS011;26454;51.164;4.488;2023-09-07T14:41:09;3.72;;;2.25;;
40745;SDS011;26454;51.164;4.488;2023-09-07T14:43:42;5.28;;;2.15;;
40745;SDS011;26454;51.164;4.488;2023-09-07T14:46:08;2.50;;;2.30;;
40745;SDS011;26454;51.164;4.488;2023-09-07T14:48:34;4.10;;;2.50;;
40745;SDS011;26454;51.164;4.488;2023-09-07T14:51:00;3.03;;;2.40;;
40745;SDS011;26454;51.164;4.488;2023-09-07T14:53:27;3.13;;;2.22;;